Time;durP1;ratioP1;P1;durP2;ratioP2;P2;SDS_P1;SDS_P2;PMS_P1;PMS_P2;Temp;Humidity;BMP_temperature;BMP_pressure;BME280_temperature;BME280_humidity;BME280_pressure;Samples;Min_cycle;Max_cycle;Signal;HPM_P1;HPM_P2
2023/07/29 00:01:50;;;;;;;;;;;18.20;99.90;;;;;;5074559;28;20249;-81
2023/07/29 00:04:16;;;;;;;;;;;18.20;99.90;;;;;;5076352;28;20306;-81
2023/07/29 00:06:41;;;;;;;;;;;18.20;99.90;;;;;;5057802;28;19939;-81
2023/07/29 00:09:07;;;;;;;;;;;18.20;99.90;;;;;;5067218;28;20375;-82
2023/07/29 00:11:34;;;;;;;;;;;18.20;99.90;;;;;;5058117;28;20273;-82
2023/07/29 00:14:00;;;;;;;;;;;18.20;99.90;;;;;;5076299;28;19927;-82
2023/07/29 00:16:27;;;;;;;;;;;18.20;99.90;;;;;;5074909;28;20348;-81
2023/07/29 00:18:53;;;;;;;;;;;18.10;99.90;;;;;;5067210;28;20378;-82
2023/07/29 00:21:19;;;;;;;;;;;18.10;99.90;;;;;;5076465;28;19916;-85
2023/07/29 00:23:45;;;;;;;;;;;18.10;99.90;;;;;;5058618;28;20784;-84
2023/07/29 00:26:12;;;;;;;;;;;18.10;99.90;;;;;;5058007;28;20010;-84
2023/07/29 00:28:38;;;;;;;;;;;18.10;99.90;;;;;;5074329;28;19966;-84
2023/07/29 00:31:03;;;;;;;;;;;18.10;99.90;;;;;;5061798;28;20062;-83
2023/07/29 00:33:29;;;;;;;;;;;18.10;99.90;;;;;;5075254;28;20339;-85
2023/07/29 00:35:54;;;;;;;;;;;18.10;99.90;;;;;;5077085;28;19980;-84
2023/07/29 00:38:20;;;;;;;;;;;18.00;99.90;;;;;;5073842;28;19916;-84
2023/07/29 00:40:45;;;;;;;;;;;17.90;99.90;;;;;;5084222;28;20360;-85
2023/07/29 00:43:11;;;;;;;;;;;17.90;99.90;;;;;;5060157;28;19908;-85
2023/07/29 00:45:37;;;;;;;;;;;17.90;99.90;;;;;;5058241;28;20348;-85
2023/07/29 00:48:03;;;;;;;;;;;17.80;99.90;;;;;;5069979;28;19942;-87
2023/07/29 00:50:29;;;;;;;;;;;17.80;99.90;;;;;;5058086;28;19916;-85
2023/07/29 00:52:55;;;;;;;;;;;17.80;99.90;;;;;;5077792;28;19916;-84
2023/07/29 00:55:20;;;;;;;;;;;17.70;99.90;;;;;;5059408;28;19916;-85
2023/07/29 00:57:49;;;;;;;;;;;17.80;99.90;;;;;;5059337;28;20425;-87
2023/07/29 01:00:15;;;;;;;;;;;17.80;99.90;;;;;;5061775;28;19978;-84
2023/07/29 01:02:42;;;;;;;;;;;17.80;99.90;;;;;;5058474;28;19920;-85
2023/07/29 01:05:07;;;;;;;;;;;17.80;99.90;;;;;;5058118;28;20004;-86
2023/07/29 01:07:36;;;;;;;;;;;17.90;99.90;;;;;;5075408;28;20256;-85
2023/07/29 01:10:18;;;;;;;;;;;18.00;99.90;;;;;;5058606;28;20043;-85
2023/07/29 01:13:02;;;;;;;;;;;18.10;99.90;;;;;;5074215;28;19949;-85
2023/07/29 01:15:43;;;;;;;;;;;18.20;99.90;;;;;;5074460;28;19916;-84
2023/07/29 01:18:15;;;;;;;;;;;18.30;99.90;;;;;;5057161;28;20251;-85
2023/07/29 01:20:43;;;;;;;;;;;18.30;99.90;;;;;;5056929;28;19920;-84
2023/07/29 01:23:08;;;;;;;;;;;18.30;99.90;;;;;;5061947;28;19927;-84
2023/07/29 01:25:34;;;;;;;;;;;18.40;99.90;;;;;;5070030;28;19912;-85
2023/07/29 01:27:59;;;;;;;;;;;18.40;99.90;;;;;;5057551;28;19992;-84
2023/07/29 01:30:36;;;;;;;;;;;18.40;99.90;;;;;;5074362;28;19916;-84
2023/07/29 01:33:09;;;;;;;;;;;18.50;99.90;;;;;;5076580;28;19920;-83
2023/07/29 01:35:42;;;;;;;;;;;18.50;99.90;;;;;;5073904;28;19920;-83
2023/07/29 01:38:14;;;;;;;;;;;18.50;99.90;;;;;;5076322;28;19916;-84
2023/07/29 01:40:39;;;;;;;;;;;18.50;99.90;;;;;;5059348;28;19916;-84
2023/07/29 01:43:07;;;;;;;;;;;18.50;99.90;;;;;;5075347;28;19938;-85
2023/07/29 01:45:36;;;;;;;;;;;18.50;99.90;;;;;;5064044;28;19920;-84
2023/07/29 01:48:01;;;;;;;;;;;18.50;99.90;;;;;;5058719;28;19924;-85
2023/07/29 01:50:27;;;;;;;;;;;18.60;99.90;;;;;;5079346;28;20892;-84
2023/07/29 01:52:52;;;;;;;;;;;18.50;99.90;;;;;;5079707;28;20571;-84
2023/07/29 01:55:18;;;;;;;;;;;18.50;99.90;;;;;;5060687;28;20411;-86
2023/07/29 01:57:44;;;;;;;;;;;18.50;99.90;;;;;;5074539;28;19916;-86
2023/07/29 02:00:10;;;;;;;;;;;18.50;99.90;;;;;;5060687;28;20011;-85
2023/07/29 02:02:36;;;;;;;;;;;18.50;99.90;;;;;;5069771;28;21769;-84
2023/07/29 02:05:01;;;;;;;;;;;18.50;99.90;;;;;;5079167;28;19924;-85
2023/07/29 02:07:27;;;;;;;;;;;18.50;99.90;;;;;;5070069;28;20372;-84
2023/07/29 02:09:53;;;;;;;;;;;18.60;99.90;;;;;;5078909;28;20372;-84
2023/07/29 02:12:18;;;;;;;;;;;18.60;99.90;;;;;;5073653;28;19935;-84
2023/07/29 02:14:44;;;;;;;;;;;18.60;99.90;;;;;;5059930;28;19955;-84
2023/07/29 02:17:09;;;;;;;;;;;18.70;99.90;;;;;;5078636;28;20267;-84
2023/07/29 02:19:36;;;;;;;;;;;18.70;99.90;;;;;;5078719;28;20279;-84
2023/07/29 02:22:02;;;;;;;;;;;18.70;99.90;;;;;;5063974;28;19924;-83
2023/07/29 02:24:27;;;;;;;;;;;18.70;99.90;;;;;;5061065;28;20032;-84
2023/07/29 02:26:53;;;;;;;;;;;18.70;99.90;;;;;;5072224;28;20085;-84
2023/07/29 02:29:18;;;;;;;;;;;18.70;99.90;;;;;;5060702;28;20038;-83
2023/07/29 02:31:44;;;;;;;;;;;18.70;99.90;;;;;;5064756;28;19951;-84
2023/07/29 02:34:11;;;;;;;;;;;18.70;99.90;;;;;;5062692;28;19920;-83
2023/07/29 02:36:37;;;;;;;;;;;18.70;99.90;;;;;;5079239;28;19999;-82
2023/07/29 02:39:02;;;;;;;;;;;18.70;99.90;;;;;;5077025;28;20054;-84
2023/07/29 02:41:28;;;;;;;;;;;18.70;99.90;;;;;;5077875;28;19928;-84
2023/07/29 02:43:53;;;;;;;;;;;18.70;99.90;;;;;;5058545;28;20924;-84
2023/07/29 02:46:19;;;;;;;;;;;18.70;99.90;;;;;;5070100;28;19909;-85
2023/07/29 02:48:44;;;;;;;;;;;18.70;99.90;;;;;;5061023;28;19951;-83
2023/07/29 02:51:10;;;;;;;;;;;18.70;99.90;;;;;;5059724;28;19951;-84
2023/07/29 02:53:36;;;;;;;;;;;18.80;99.90;;;;;;5076836;28;19958;-84
2023/07/29 02:56:06;;;;;;;;;;;18.80;99.90;;;;;;5080002;28;19963;-85
2023/07/29 02:58:31;;;;;;;;;;;18.80;99.90;;;;;;5077964;28;20024;-83
2023/07/29 03:01:00;;;;;;;;;;;18.80;99.90;;;;;;5079615;28;20006;-83
2023/07/29 03:03:26;;;;;;;;;;;18.70;99.90;;;;;;5060503;28;19959;-85
2023/07/29 03:05:56;;;;;;;;;;;18.70;99.90;;;;;;5078143;28;20040;-84
2023/07/29 03:08:22;;;;;;;;;;;18.70;99.90;;;;;;5077627;28;20004;-84
2023/07/29 03:10:48;;;;;;;;;;;18.70;99.90;;;;;;5071381;28;19924;-85
2023/07/29 03:13:13;;;;;;;;;;;18.60;99.90;;;;;;5058725;28;20391;-85
2023/07/29 03:15:39;;;;;;;;;;;18.60;99.90;;;;;;5059403;28;19920;-85
2023/07/29 03:18:04;;;;;;;;;;;18.60;99.90;;;;;;5059922;28;20002;-86
2023/07/29 03:20:30;;;;;;;;;;;18.60;99.90;;;;;;5078320;28;20371;-85
2023/07/29 03:22:56;;;;;;;;;;;18.50;99.90;;;;;;5077297;28;19952;-85
2023/07/29 03:25:21;;;;;;;;;;;18.50;99.90;;;;;;5079178;28;20065;-85
2023/07/29 03:27:49;;;;;;;;;;;18.50;99.90;;;;;;5075355;28;20661;-85
2023/07/29 03:30:15;;;;;;;;;;;18.50;99.90;;;;;;5069126;28;20457;-85
2023/07/29 03:32:43;;;;;;;;;;;18.50;99.90;;;;;;5078419;28;19953;-84
2023/07/29 03:35:08;;;;;;;;;;;18.50;99.90;;;;;;5076950;28;20339;-85
2023/07/29 03:37:35;;;;;;;;;;;18.50;99.90;;;;;;5077109;28;19912;-84
2023/07/29 03:40:01;;;;;;;;;;;18.40;99.90;;;;;;5071121;28;19924;-85
2023/07/29 03:42:26;;;;;;;;;;;18.40;99.90;;;;;;5059491;28;19921;-85
2023/07/29 03:44:53;;;;;;;;;;;18.30;99.90;;;;;;5056912;28;20344;-85
2023/07/29 03:47:20;;;;;;;;;;;18.30;99.90;;;;;;5076746;28;19920;-84
2023/07/29 03:49:45;;;;;;;;;;;18.20;99.90;;;;;;5070709;28;19931;-84
2023/07/29 03:52:12;;;;;;;;;;;18.20;99.90;;;;;;5076379;28;19932;-85
2023/07/29 03:54:37;;;;;;;;;;;18.20;99.90;;;;;;5069907;28;19962;-85
2023/07/29 03:57:03;;;;;;;;;;;18.20;99.90;;;;;;5076780;28;19916;-86
2023/07/29 03:59:29;;;;;;;;;;;18.20;99.90;;;;;;5074429;28;20357;-86
2023/07/29 04:01:54;;;;;;;;;;;18.10;99.90;;;;;;5076936;28;20473;-86
2023/07/29 04:04:20;;;;;;;;;;;18.10;99.90;;;;;;5070543;28;19938;-87
2023/07/29 04:06:46;;;;;;;;;;;18.10;99.90;;;;;;5057414;28;19938;-85
2023/07/29 04:09:11;;;;;;;;;;;18.10;99.90;;;;;;5059253;28;19916;-85
2023/07/29 04:11:37;;;;;;;;;;;18.00;99.90;;;;;;5075920;28;19916;-86
2023/07/29 04:14:04;;;;;;;;;;;18.10;99.90;;;;;;5058545;28;19912;-85
2023/07/29 04:16:29;;;;;;;;;;;18.00;99.90;;;;;;5058399;28;19916;-86
2023/07/29 04:18:55;;;;;;;;;;;18.00;99.90;;;;;;5069275;28;20405;-88
2023/07/29 04:21:20;;;;;;;;;;;18.00;99.90;;;;;;5074835;28;19968;-86
2023/07/29 04:23:46;;;;;;;;;;;17.90;99.90;;;;;;5077650;28;19959;-87
2023/07/29 04:26:12;;;;;;;;;;;17.90;99.90;;;;;;5058408;28;20334;-86
2023/07/29 04:28:38;;;;;;;;;;;17.90;99.90;;;;;;5076570;28;19983;-86
2023/07/29 04:31:05;;;;;;;;;;;17.90;99.90;;;;;;5057713;28;19931;-87
2023/07/29 04:33:31;;;;;;;;;;;17.80;99.90;;;;;;5075994;28;20419;-87
2023/07/29 04:35:56;;;;;;;;;;;17.90;99.90;;;;;;5059887;28;19919;-85
2023/07/29 04:38:22;;;;;;;;;;;17.80;99.90;;;;;;5076484;28;20003;-86
2023/07/29 04:40:50;;;;;;;;;;;17.80;99.90;;;;;;5076314;28;20019;-87
2023/07/29 04:43:16;;;;;;;;;;;17.80;99.90;;;;;;5073915;28;19908;-86
2023/07/29 04:45:45;;;;;;;;;;;17.80;99.90;;;;;;5074066;28;19918;-85
2023/07/29 04:48:10;;;;;;;;;;;17.80;99.90;;;;;;5058674;28;19928;-85
2023/07/29 04:50:36;;;;;;;;;;;17.90;99.90;;;;;;5066544;28;19998;-86
2023/07/29 04:53:01;;;;;;;;;;;17.90;99.90;;;;;;5063400;28;19956;-86
2023/07/29 04:55:30;;;;;;;;;;;17.80;99.90;;;;;;5076519;28;19912;-85
2023/07/29 04:57:55;;;;;;;;;;;17.80;99.90;;;;;;5057628;28;20601;-85
2023/07/29 05:00:21;;;;;;;;;;;17.80;99.90;;;;;;5056433;28;19941;-85
2023/07/29 05:02:54;;;;;;;;;;;17.80;99.90;;;;;;5068379;28;20443;-84
2023/07/29 05:05:22;;;;;;;;;;;17.80;99.90;;;;;;5055612;28;19954;-84
2023/07/29 05:07:50;;;;;;;;;;;17.80;99.90;;;;;;5077007;28;20043;-84
2023/07/29 05:10:20;;;;;;;;;;;17.90;99.90;;;;;;5066893;28;19912;-85
2023/07/29 05:12:48;;;;;;;;;;;17.90;99.90;;;;;;5056456;28;20380;-85
2023/07/29 05:15:18;;;;;;;;;;;18.00;99.90;;;;;;5077927;28;19916;-84
2023/07/29 05:17:44;;;;;;;;;;;18.00;99.90;;;;;;5079619;28;19909;-84
2023/07/29 05:20:09;;;;;;;;;;;18.10;99.90;;;;;;5062248;28;19920;-83
2023/07/29 05:22:37;;;;;;;;;;;18.00;99.90;;;;;;5057746;28;20318;-83
2023/07/29 05:25:03;;;;;;;;;;;18.10;99.90;;;;;;5075579;28;19908;-83
2023/07/29 05:27:29;;;;;;;;;;;18.10;99.90;;;;;;5060063;28;19927;-85
2023/07/29 05:29:54;;;;;;;;;;;18.10;99.90;;;;;;5062375;28;19923;-83
2023/07/29 05:32:24;;;;;;;;;;;18.00;99.90;;;;;;5060081;28;19916;-84
2023/07/29 05:34:55;;;;;;;;;;;18.00;99.90;;;;;;5074953;28;20427;-83
2023/07/29 05:37:24;;;;;;;;;;;18.00;99.90;;;;;;5074201;28;19920;-83
2023/07/29 05:39:54;;;;;;;;;;;18.00;99.90;;;;;;5074697;28;19908;-82
2023/07/29 05:42:24;;;;;;;;;;;18.00;99.90;;;;;;5073002;28;20370;-83
2023/07/29 05:44:55;;;;;;;;;;;18.00;99.90;;;;;;5074103;28;19966;-83
2023/07/29 05:47:20;;;;;;;;;;;17.90;99.90;;;;;;5056633;28;19920;-83
2023/07/29 05:49:49;;;;;;;;;;;17.90;99.90;;;;;;5061113;28;19923;-82
2023/07/29 05:52:15;;;;;;;;;;;17.90;99.90;;;;;;5075476;28;19920;-84
2023/07/29 05:54:43;;;;;;;;;;;18.00;99.90;;;;;;5057217;28;19927;-82
2023/07/29 05:57:12;;;;;;;;;;;18.00;99.90;;;;;;5072846;28;19916;-82
2023/07/29 05:59:38;;;;;;;;;;;18.00;99.90;;;;;;5055465;28;19909;-82
2023/07/29 06:02:04;;;;;;;;;;;18.10;99.90;;;;;;5073497;28;20290;-82
2023/07/29 06:04:29;;;;;;;;;;;18.10;99.90;;;;;;5055369;28;20564;-81
2023/07/29 06:06:55;;;;;;;;;;;18.20;99.90;;;;;;5057581;28;20276;-82
2023/07/29 06:09:40;;;;;;;;;;;18.10;99.90;;;;;;5073254;28;20330;-81
2023/07/29 06:12:06;;;;;;;;;;;18.20;99.90;;;;;;5071474;28;19935;-83
2023/07/29 06:14:31;;;;;;;;;;;18.20;99.90;;;;;;5056197;28;19912;-82
2023/07/29 06:17:02;;;;;;;;;;;18.20;99.90;;;;;;5075507;28;19966;-83
2023/07/29 06:19:28;;;;;;;;;;;18.30;99.90;;;;;;5074677;28;19916;-83
2023/07/29 06:21:55;;;;;;;;;;;18.30;99.90;;;;;;5057666;28;19908;-83
2023/07/29 06:24:20;;;;;;;;;;;18.40;99.90;;;;;;5075205;28;19967;-82
2023/07/29 06:26:46;;;;;;;;;;;18.40;99.90;;;;;;5054961;28;20344;-82
2023/07/29 06:29:16;;;;;;;;;;;18.50;99.90;;;;;;5073977;28;20445;-82
2023/07/29 06:31:41;;;;;;;;;;;18.50;99.90;;;;;;5056206;28;19924;-84
2023/07/29 06:34:07;;;;;;;;;;;18.70;99.90;;;;;;5069938;28;19916;-82
2023/07/29 06:36:33;;;;;;;;;;;18.60;99.90;;;;;;5078987;28;20058;-84
2023/07/29 06:39:00;;;;;;;;;;;18.70;99.90;;;;;;5059882;28;20315;-83
2023/07/29 06:41:28;;;;;;;;;;;18.70;99.90;;;;;;5057296;28;19958;-84
2023/07/29 06:43:53;;;;;;;;;;;18.80;99.90;;;;;;5060488;28;19919;-83
2023/07/29 06:46:22;;;;;;;;;;;18.80;99.90;;;;;;5069800;28;19908;-84
2023/07/29 06:48:48;;;;;;;;;;;18.90;99.90;;;;;;5075399;28;19916;-84
2023/07/29 06:51:14;;;;;;;;;;;18.90;99.90;;;;;;5077509;28;20419;-82
2023/07/29 06:53:40;;;;;;;;;;;19.00;99.90;;;;;;5079613;28;20015;-83
2023/07/29 06:56:08;;;;;;;;;;;19.10;99.90;;;;;;5059367;28;19939;-83
2023/07/29 06:58:34;;;;;;;;;;;19.10;99.90;;;;;;5059161;28;19915;-82
2023/07/29 07:01:03;;;;;;;;;;;19.20;99.90;;;;;;5059254;28;19920;-83
2023/07/29 07:03:30;;;;;;;;;;;19.20;99.90;;;;;;5077291;28;19914;-81
2023/07/29 07:05:55;;;;;;;;;;;19.10;99.90;;;;;;5065740;28;19950;-84
2023/07/29 07:08:22;;;;;;;;;;;19.20;99.90;;;;;;5060390;28;20447;-82
2023/07/29 07:10:48;;;;;;;;;;;19.20;99.90;;;;;;5077680;28;20069;-83
2023/07/29 07:13:13;;;;;;;;;;;19.20;99.90;;;;;;5059558;28;19928;-83
2023/07/29 07:15:39;;;;;;;;;;;19.10;99.90;;;;;;5059933;28;19915;-83
2023/07/29 07:18:05;;;;;;;;;;;19.20;99.90;;;;;;5079530;28;20272;-82
2023/07/29 07:20:31;;;;;;;;;;;19.30;99.90;;;;;;5089019;28;19928;-84
2023/07/29 07:22:58;;;;;;;;;;;19.50;99.90;;;;;;5085780;28;19916;-83
2023/07/29 07:25:24;;;;;;;;;;;19.60;99.90;;;;;;5088895;28;19938;-82
2023/07/29 07:27:49;;;;;;;;;;;19.80;99.90;;;;;;5083238;28;19920;-82
2023/07/29 07:30:15;;;;;;;;;;;19.90;99.90;;;;;;5086398;28;20022;-83
2023/07/29 07:32:40;;;;;;;;;;;20.00;99.90;;;;;;5083636;28;19990;-82
2023/07/29 07:35:07;;;;;;;;;;;20.00;99.90;;;;;;5077682;28;20362;-83
2023/07/29 07:37:32;;;;;;;;;;;20.10;99.90;;;;;;5060042;28;20022;-83
2023/07/29 07:39:58;;;;;;;;;;;20.00;99.90;;;;;;5076489;28;19908;-82
2023/07/29 07:42:23;;;;;;;;;;;20.10;99.90;;;;;;5074228;28;19944;-82
2023/07/29 07:44:49;;;;;;;;;;;20.10;99.90;;;;;;5076919;28;19920;-83
2023/07/29 07:47:17;;;;;;;;;;;20.20;99.90;;;;;;5062191;28;20492;-82
2023/07/29 07:49:43;;;;;;;;;;;20.20;99.90;;;;;;5078622;28;19909;-83
2023/07/29 07:52:08;;;;;;;;;;;20.20;99.90;;;;;;5059602;28;20383;-84
2023/07/29 07:54:34;;;;;;;;;;;20.20;99.90;;;;;;5057433;28;19909;-82
2023/07/29 07:56:59;;;;;;;;;;;20.20;99.90;;;;;;5073304;28;20307;-83
2023/07/29 07:59:25;;;;;;;;;;;20.30;99.90;;;;;;5074734;28;20365;-83
2023/07/29 08:01:52;;;;;;;;;;;20.50;99.90;;;;;;5066619;28;19915;-83
2023/07/29 08:04:17;;;;;;;;;;;20.40;99.90;;;;;;5059569;28;20014;-84
2023/07/29 08:06:44;;;;;;;;;;;20.30;99.90;;;;;;5057103;28;19917;-83
2023/07/29 08:09:19;;;;;;;;;;;20.30;99.90;;;;;;5076279;28;19916;-82
2023/07/29 08:12:01;;;;;;;;;;;20.20;99.90;;;;;;5076367;28;20015;-83
2023/07/29 08:14:26;;;;;;;;;;;20.20;99.90;;;;;;5056389;28;20032;-83
2023/07/29 08:16:52;;;;;;;;;;;20.20;99.90;;;;;;5075549;28;19917;-84
2023/07/29 08:19:21;;;;;;;;;;;20.30;99.90;;;;;;5058145;28;19912;-83
2023/07/29 08:21:48;;;;;;;;;;;20.50;99.90;;;;;;5056228;28;19996;-83
2023/07/29 08:24:14;;;;;;;;;;;20.60;99.90;;;;;;5074974;28;19917;-83
2023/07/29 08:26:45;;;;;;;;;;;20.60;99.90;;;;;;5065907;28;19916;-83
2023/07/29 08:29:17;;;;;;;;;;;20.70;99.90;;;;;;5076574;28;19908;-82
2023/07/29 08:31:47;;;;;;;;;;;20.70;99.90;;;;;;5076034;28;19927;-83
2023/07/29 08:34:16;;;;;;;;;;;20.60;99.90;;;;;;5055731;28;20044;-83
2023/07/29 08:36:49;;;;;;;;;;;20.60;99.90;;;;;;5075879;28;19962;-83
2023/07/29 08:39:18;;;;;;;;;;;20.50;99.90;;;;;;5074252;28;20385;-83
2023/07/29 08:42:09;;;;;;;;;;;20.40;99.90;;;;;;5071925;28;19916;-86
2023/07/29 08:44:43;;;;;;;;;;;20.40;99.90;;;;;;5075053;28;19916;-83
2023/07/29 08:47:18;;;;;;;;;;;20.50;99.90;;;;;;5074763;28;19924;-82
2023/07/29 08:49:45;;;;;;;;;;;20.60;99.90;;;;;;5057938;28;19985;-84
2023/07/29 08:52:14;;;;;;;;;;;20.80;99.90;;;;;;5051312;28;19957;-83
2023/07/29 08:54:40;;;;;;;;;;;21.10;99.90;;;;;;5075486;28;19985;-83
2023/07/29 08:57:06;;;;;;;;;;;21.50;99.90;;;;;;5053853;28;19916;-84
2023/07/29 08:59:32;;;;;;;;;;;21.60;99.90;;;;;;5056033;28;20160;-84
2023/07/29 09:01:58;;;;;;;;;;;21.70;99.90;;;;;;5056362;28;19923;-84
2023/07/29 09:04:24;;;;;;;;;;;21.60;99.90;;;;;;5056568;28;19916;-83
2023/07/29 09:06:53;;;;;;;;;;;21.40;99.90;;;;;;5057549;28;19979;-83
2023/07/29 09:09:22;;;;;;;;;;;21.30;99.90;;;;;;5071306;28;19912;-82
2023/07/29 09:11:48;;;;;;;;;;;21.20;99.90;;;;;;5054370;28;19935;-83
2023/07/29 09:14:15;;;;;;;;;;;21.20;99.90;;;;;;5074836;28;19917;-82
2023/07/29 09:16:41;;;;;;;;;;;21.10;99.90;;;;;;5061140;28;19917;-82
2023/07/29 09:19:07;;;;;;;;;;;21.00;99.90;;;;;;5071827;28;19920;-82
2023/07/29 09:21:32;;;;;;;;;;;21.00;99.90;;;;;;5065000;28;19993;-84
2023/07/29 09:24:02;;;;;;;;;;;21.10;99.90;;;;;;5056552;28;19962;-82
2023/07/29 09:26:29;;;;;;;;;;;21.20;99.90;;;;;;5055339;28;19923;-82
2023/07/29 09:28:56;;;;;;;;;;;21.20;99.90;;;;;;5074420;28;19921;-83
2023/07/29 09:31:22;;;;;;;;;;;21.40;99.90;;;;;;5077055;28;19932;-83
2023/07/29 09:33:49;;;;;;;;;;;21.60;99.90;;;;;;5054748;28;19916;-84
2023/07/29 09:36:19;;;;;;;;;;;21.70;99.90;;;;;;5071561;28;19963;-82
2023/07/29 09:38:45;;;;;;;;;;;21.70;99.90;;;;;;5074719;28;19920;-84
2023/07/29 09:41:23;;;;;;;;;;;21.70;99.90;;;;;;5073411;28;19923;-82
2023/07/29 09:44:05;;;;;;;;;;;21.80;99.90;;;;;;5075376;28;20352;-83
2023/07/29 09:46:35;;;;;;;;;;;21.80;99.90;;;;;;5046162;28;19951;-84
2023/07/29 09:49:04;;;;;;;;;;;21.70;99.90;;;;;;5080354;28;20019;-84
2023/07/29 09:51:29;;;;;;;;;;;21.60;99.90;;;;;;5071653;28;19962;-85
2023/07/29 09:54:02;;;;;;;;;;;21.60;99.90;;;;;;5056164;28;20375;-83
2023/07/29 09:56:27;;;;;;;;;;;21.70;99.90;;;;;;5056448;28;19916;-84
2023/07/29 09:58:55;;;;;;;;;;;21.70;99.90;;;;;;5073375;28;19908;-84
2023/07/29 10:01:21;;;;;;;;;;;21.70;99.90;;;;;;5075742;28;19919;-85
2023/07/29 10:03:51;;;;;;;;;;;21.90;99.90;;;;;;5072707;28;20028;-84
2023/07/29 10:06:19;;;;;;;;;;;22.40;99.90;;;;;;5061348;28;19935;-82
2023/07/29 10:08:47;;;;;;;;;;;22.80;99.90;;;;;;5058550;28;19920;-84
2023/07/29 10:11:16;;;;;;;;;;;23.70;99.90;;;;;;5059531;28;19924;-83
2023/07/29 10:13:43;;;;;;;;;;;24.70;99.90;;;;;;5064104;28;19945;-85
2023/07/29 10:16:10;;;;;;;;;;;25.40;99.90;;;;;;5059503;28;19915;-83
2023/07/29 10:18:36;;;;;;;;;;;26.00;99.90;;;;;;5079183;28;19915;-84
2023/07/29 10:21:02;;;;;;;;;;;26.90;99.90;;;;;;5063497;28;19907;-84
2023/07/29 10:23:32;;;;;;;;;;;27.70;99.90;;;;;;5059387;28;19923;-83
2023/07/29 10:26:04;;;;;;;;;;;27.60;99.90;;;;;;5059988;28;20034;-83
2023/07/29 10:28:30;;;;;;;;;;;27.10;99.90;;;;;;5047454;28;20026;-83
2023/07/29 10:30:56;;;;;;;;;;;26.20;99.90;;;;;;5060165;28;19962;-84
2023/07/29 10:33:22;;;;;;;;;;;25.40;99.90;;;;;;5058652;28;20006;-85
2023/07/29 10:35:49;;;;;;;;;;;24.80;99.90;;;;;;5065374;28;20359;-85
2023/07/29 10:38:19;;;;;;;;;;;24.50;99.90;;;;;;5042434;28;19917;-83
2023/07/29 10:40:55;;;;;;;;;;;24.40;99.90;;;;;;5061759;28;19917;-85
2023/07/29 10:43:31;;;;;;;;;;;24.30;99.90;;;;;;5056222;28;19926;-85
2023/07/29 10:45:57;;;;;;;;;;;24.30;99.90;;;;;;5054674;28;19917;-85
2023/07/29 10:48:37;;;;;;;;;;;24.30;99.90;;;;;;5051828;28;19924;-85
2023/07/29 10:51:25;;;;;;;;;;;24.40;99.90;;;;;;5057500;28;20026;-85
2023/07/29 10:54:02;;;;;;;;;;;24.10;99.90;;;;;;5056278;28;19921;-86
2023/07/29 10:56:34;;;;;;;;;;;24.10;99.90;;;;;;5055711;28;19923;-87
2023/07/29 10:59:21;;;;;;;;;;;24.00;99.90;;;;;;5055292;28;20365;-87
2023/07/29 11:02:00;;;;;;;;;;;24.00;99.90;;;;;;5053484;28;20157;-87
2023/07/29 11:04:33;;;;;;;;;;;24.30;99.90;;;;;;5055379;28;20584;-85
2023/07/29 11:07:07;;;;;;;;;;;24.60;99.90;;;;;;5075342;28;19920;-87
2023/07/29 11:09:56;;;;;;;;;;;24.60;99.90;;;;;;5057147;28;19917;-86
2023/07/29 11:12:37;;;;;;;;;;;24.70;99.90;;;;;;5060384;28;19939;-85
2023/07/29 11:15:28;;;;;;;;;;;24.60;99.90;;;;;;5062612;28;19994;-86
2023/07/29 11:17:55;;;;;;;;;;;24.30;99.90;;;;;;5063599;28;19917;-85
2023/07/29 11:20:25;;;;;;;;;;;23.90;99.90;;;;;;5063604;28;19916;-84
2023/07/29 11:22:50;;;;;;;;;;;23.70;99.90;;;;;;5070937;28;19921;-85
2023/07/29 11:25:18;;;;;;;;;;;23.60;99.90;;;;;;5065311;28;19940;-85
2023/07/29 11:27:54;;;;;;;;;;;23.40;99.90;;;;;;5060415;28;20402;-84
2023/07/29 11:30:23;;;;;;;;;;;23.40;99.90;;;;;;5070732;28;19917;-85
2023/07/29 11:32:59;;;;;;;;;;;23.40;99.90;;;;;;5062301;28;20124;-85
2023/07/29 11:35:25;;;;;;;;;;;23.40;99.90;;;;;;5074122;28;19920;-83
2023/07/29 11:37:52;;;;;;;;;;;23.50;99.90;;;;;;5079204;28;20655;-84
2023/07/29 11:40:21;;;;;;;;;;;23.50;99.90;;;;;;5057646;28;19923;-86
2023/07/29 11:42:51;;;;;;;;;;;23.50;99.90;;;;;;5061565;28;19944;-85
2023/07/29 11:45:21;;;;;;;;;;;23.40;99.90;;;;;;5078609;28;20325;-85
2023/07/29 11:47:48;;;;;;;;;;;23.30;99.90;;;;;;5059557;28;19916;-84
2023/07/29 11:50:14;;;;;;;;;;;23.20;99.90;;;;;;5060755;28;19920;-84
2023/07/29 11:52:42;;;;;;;;;;;23.00;99.90;;;;;;5070537;28;20408;-85
2023/07/29 11:55:07;;;;;;;;;;;22.60;99.90;;;;;;5055895;28;19916;-85
2023/07/29 11:57:34;;;;;;;;;;;22.00;99.90;;;;;;5070779;28;19915;-85
2023/07/29 12:00:02;;;;;;;;;;;21.50;99.90;;;;;;5060065;28;19938;-85
2023/07/29 12:02:29;;;;;;;;;;;21.00;99.90;;;;;;5055136;28;19908;-87
2023/07/29 12:04:57;;;;;;;;;;;20.60;99.90;;;;;;5075787;28;19920;-88
2023/07/29 12:07:24;;;;;;;;;;;20.20;99.90;;;;;;5057397;28;19999;-87
2023/07/29 12:09:53;;;;;;;;;;;19.80;99.90;;;;;;5076927;28;19961;-88
2023/07/29 12:12:26;;;;;;;;;;;19.40;99.90;;;;;;5076898;28;19993;-89
2023/07/29 12:14:55;;;;;;;;;;;19.10;99.90;;;;;;5065443;28;20358;-90
2023/07/29 12:17:22;;;;;;;;;;;19.00;99.90;;;;;;5068641;28;19954;-91
2023/07/29 12:19:49;;;;;;;;;;;19.00;99.90;;;;;;5053220;28;19955;-89
2023/07/29 12:22:17;;;;;;;;;;;19.10;99.90;;;;;;5056273;28;19918;-91
2023/07/29 12:24:54;;;;;;;;;;;19.10;99.90;;;;;;5092532;28;20069;-91
2023/07/29 12:27:21;;;;;;;;;;;19.20;99.90;;;;;;5084337;28;20039;-91
2023/07/29 12:29:48;;;;;;;;;;;19.10;99.90;;;;;;5066794;28;20100;-91
2023/07/29 12:32:23;;;;;;;;;;;19.00;99.90;;;;;;5071638;28;20391;-91
2023/07/29 12:34:54;;;;;;;;;;;18.90;99.90;;;;;;5085306;28;20057;-90
2023/07/29 12:37:30;;;;;;;;;;;18.90;99.90;;;;;;5096312;28;19920;-89
2023/07/29 12:40:00;;;;;;;;;;;18.90;99.90;;;;;;5090443;28;19949;-92
2023/07/29 12:42:28;;;;;;;;;;;19.00;99.90;;;;;;5087493;28;19922;-93
2023/07/29 12:44:54;;;;;;;;;;;19.10;99.90;;;;;;5074275;28;20399;-91
2023/07/29 12:47:22;;;;;;;;;;;19.30;99.90;;;;;;5074825;28;20520;-91
2023/07/29 12:49:49;;;;;;;;;;;19.50;99.90;;;;;;5088442;28;19953;-92
2023/07/29 12:52:16;;;;;;;;;;;19.70;99.90;;;;;;5087285;28;20381;-92
2023/07/29 12:54:44;;;;;;;;;;;19.80;99.90;;;;;;5084449;28;19962;-91
2023/07/29 12:57:11;;;;;;;;;;;19.90;99.90;;;;;;5064020;28;20297;-92
2023/07/29 12:59:41;;;;;;;;;;;20.10;99.90;;;;;;5079292;28;20330;-92
2023/07/29 13:02:06;;;;;;;;;;;20.20;99.90;;;;;;5068510;28;19927;-91
2023/07/29 13:04:32;;;;;;;;;;;20.40;99.90;;;;;;5061109;28;19924;-91
2023/07/29 13:06:59;;;;;;;;;;;20.60;99.90;;;;;;5067783;28;20644;-90
2023/07/29 13:09:26;;;;;;;;;;;20.90;99.90;;;;;;5066494;28;19989;-88
2023/07/29 13:11:51;;;;;;;;;;;21.20;99.90;;;;;;5060054;28;20398;-88
2023/07/29 13:14:18;;;;;;;;;;;21.50;99.90;;;;;;5070416;28;19951;-90
2023/07/29 13:16:45;;;;;;;;;;;21.60;99.90;;;;;;5064328;28;19920;-89
2023/07/29 13:19:10;;;;;;;;;;;21.90;99.90;;;;;;5077010;28;19920;-88
2023/07/29 13:21:39;;;;;;;;;;;22.00;99.90;;;;;;5057723;28;19962;-88
2023/07/29 13:24:04;;;;;;;;;;;22.10;99.90;;;;;;5057428;28;19917;-87
2023/07/29 13:26:30;;;;;;;;;;;21.90;99.90;;;;;;5059035;28;19924;-88
2023/07/29 13:28:56;;;;;;;;;;;21.80;99.90;;;;;;5068975;28;19916;-88
2023/07/29 13:31:22;;;;;;;;;;;21.70;99.90;;;;;;5074817;28;20057;-87
2023/07/29 13:33:48;;;;;;;;;;;21.70;99.90;;;;;;5077624;28;20003;-85
2023/07/29 13:36:13;;;;;;;;;;;21.80;99.90;;;;;;5073908;28;20326;-87
2023/07/29 13:38:39;;;;;;;;;;;21.90;99.90;;;;;;5074045;28;19923;-87
2023/07/29 13:41:06;;;;;;;;;;;22.00;99.90;;;;;;5077296;28;19915;-88
2023/07/29 13:43:31;;;;;;;;;;;22.20;99.90;;;;;;5073493;28;20688;-86
2023/07/29 13:45:57;;;;;;;;;;;22.80;99.90;;;;;;5072311;28;20292;-87
2023/07/29 13:48:22;;;;;;;;;;;23.00;99.90;;;;;;5076478;28;20386;-87
2023/07/29 13:50:48;;;;;;;;;;;23.00;99.90;;;;;;5075145;28;19989;-87
2023/07/29 13:53:13;;;;;;;;;;;22.80;99.90;;;;;;5056092;28;20333;-87
2023/07/29 13:55:39;;;;;;;;;;;22.70;99.90;;;;;;5076020;28;19955;-87
2023/07/29 13:58:04;;;;;;;;;;;22.80;99.90;;;;;;5056211;28;20351;-86
2023/07/29 14:00:31;;;;;;;;;;;23.10;99.90;;;;;;5074021;28;19916;-86
2023/07/29 14:02:57;;;;;;;;;;;23.60;99.90;;;;;;5063842;28;20644;-88
2023/07/29 14:05:22;;;;;;;;;;;24.00;99.90;;;;;;5054124;28;20007;-88
2023/07/29 14:07:51;;;;;;;;;;;24.40;99.90;;;;;;5062082;28;19920;-87
2023/07/29 14:10:18;;;;;;;;;;;25.10;99.90;;;;;;5056343;28;20016;-88
2023/07/29 14:12:43;;;;;;;;;;;25.00;99.90;;;;;;5056968;28;19924;-87
2023/07/29 14:15:10;;;;;;;;;;;24.80;99.90;;;;;;5057609;28;19968;-87
2023/07/29 14:17:36;;;;;;;;;;;24.40;99.90;;;;;;5073173;28;19930;-85
2023/07/29 14:20:04;;;;;;;;;;;24.10;99.90;;;;;;5075442;28;19916;-84